Zaratamo, Spain
Current Conditions -  °F | °C
As of 12:00 AM on Monday 22 Dec 2014 (Local Time) from LEBB Reporting Station
Moderate Fog Moderate Fog  
Wind Chill: 37°   Ceiling: 500
Heat Index: 41°   Visibility: 0.21mi
Dew Point: 41°   Wind: 6mph
Humidity: 100%   Direction: 100°E
Pressure: 30.53"   Gusts: NA
Location:  43.22°N, 2.87°W
Report Text: LEBB 212300Z 10005KT 0350 R30/0800N FG SCT001 BKN005 05/05 Q1034 NOSIG
Loading
Personal Weather Stations






























Interactive Weather Map New forecast layout! Learn more

10-Day Weather Forecast

Advertisements
Track Severe Weather on mobile